sensor_id;sensor_type;location;lat;lon;timestamp;pressure;altitude;pressure_sealevel;temperature;humidity
67377;BME280;54261;46.086;6.588;2023-05-31T00:01:07;92416.94;;;15.53;36.27
67377;BME280;54261;46.086;6.588;2023-05-31T00:06:10;92405.34;;;15.21;36.85
67377;BME280;54261;46.086;6.588;2023-05-31T00:11:12;92404.84;;;15.83;36.42
67377;BME280;54261;46.086;6.588;2023-05-31T00:16:14;92412.94;;;16.35;35.88
67377;BME280;54261;46.086;6.588;2023-05-31T00:21:36;92403.75;;;15.20;37.21
67377;BME280;54261;46.086;6.588;2023-05-31T00:26:38;92422.09;;;15.43;37.49
67377;BME280;54261;46.086;6.588;2023-05-31T00:31:43;92419.72;;;15.73;36.78
67377;BME280;54261;46.086;6.588;2023-05-31T00:36:44;92426.50;;;15.19;38.04
67377;BME280;54261;46.086;6.588;2023-05-31T00:41:46;92415.16;;;15.13;38.07
67377;BME280;54261;46.086;6.588;2023-05-31T00:46:48;92417.09;;;15.13;38.39
67377;BME280;54261;46.086;6.588;2023-05-31T00:51:50;92420.22;;;15.15;37.42
67377;BME280;54261;46.086;6.588;2023-05-31T00:56:52;92427.50;;;15.27;37.85
67377;BME280;54261;46.086;6.588;2023-05-31T01:01:55;92401.47;;;14.90;38.72
67377;BME280;54261;46.086;6.588;2023-05-31T01:06:59;92422.44;;;15.41;37.69
67377;BME280;54261;46.086;6.588;2023-05-31T01:12:43;92425.66;;;15.47;38.35
67377;BME280;54261;46.086;6.588;2023-05-31T01:23:34;92424.88;;;15.46;38.15
67377;BME280;54261;46.086;6.588;2023-05-31T01:28:41;92425.72;;;15.18;38.36
67377;BME280;54261;46.086;6.588;2023-05-31T01:33:43;92428.38;;;15.99;37.64
67377;BME280;54261;46.086;6.588;2023-05-31T01:38:45;92436.50;;;15.99;37.28
67377;BME280;54261;46.086;6.588;2023-05-31T01:43:48;92438.03;;;15.80;37.35
67377;BME280;54261;46.086;6.588;2023-05-31T01:48:52;92428.81;;;16.01;37.30
67377;BME280;54261;46.086;6.588;2023-05-31T01:53:55;92442.34;;;16.01;38.07
67377;BME280;54261;46.086;6.588;2023-05-31T01:58:58;92427.34;;;15.87;38.07
67377;BME280;54261;46.086;6.588;2023-05-31T02:04:00;92442.69;;;16.15;37.90
67377;BME280;54261;46.086;6.588;2023-05-31T02:09:04;92442.81;;;16.38;37.50
67377;BME280;54261;46.086;6.588;2023-05-31T02:14:07;92439.28;;;16.38;37.19
67377;BME280;54261;46.086;6.588;2023-05-31T02:19:08;92426.38;;;16.12;37.70
67377;BME280;54261;46.086;6.588;2023-05-31T02:24:15;92426.81;;;16.14;38.11
67377;BME280;54261;46.086;6.588;2023-05-31T02:29:17;92430.09;;;16.62;37.47
67377;BME280;54261;46.086;6.588;2023-05-31T02:34:20;92425.69;;;15.99;38.64
67377;BME280;54261;46.086;6.588;2023-05-31T02:39:22;92431.81;;;16.31;37.73
67377;BME280;54261;46.086;6.588;2023-05-31T02:44:24;92426.41;;;16.51;37.63
67377;BME280;54261;46.086;6.588;2023-05-31T02:49:26;92441.56;;;16.00;37.61
67377;BME280;54261;46.086;6.588;2023-05-31T02:54:27;92433.50;;;15.68;38.07
67377;BME280;54261;46.086;6.588;2023-05-31T02:59:29;92438.84;;;15.32;38.92
67377;BME280;54261;46.086;6.588;2023-05-31T03:04:43;92440.94;;;14.50;40.49
67377;BME280;54261;46.086;6.588;2023-05-31T03:09:48;92436.16;;;14.59;40.46
67377;BME280;54261;46.086;6.588;2023-05-31T03:14:50;92439.41;;;15.25;39.41
67377;BME280;54261;46.086;6.588;2023-05-31T03:19:52;92450.00;;;14.86;39.85
67377;BME280;54261;46.086;6.588;2023-05-31T03:24:54;92449.56;;;14.84;40.20
67377;BME280;54261;46.086;6.588;2023-05-31T03:29:56;92440.97;;;15.10;39.46
67377;BME280;54261;46.086;6.588;2023-05-31T03:34:58;92437.44;;;15.54;39.39
67377;BME280;54261;46.086;6.588;2023-05-31T03:40:01;92440.50;;;15.53;39.39
67377;BME280;54261;46.086;6.588;2023-05-31T03:45:06;92445.53;;;15.54;38.92
67377;BME280;54261;46.086;6.588;2023-05-31T03:50:09;92447.50;;;14.65;40.11
67377;BME280;54261;46.086;6.588;2023-05-31T03:55:11;92453.38;;;14.83;39.87
67377;BME280;54261;46.086;6.588;2023-05-31T04:00:13;92453.00;;;14.68;40.05
67377;BME280;54261;46.086;6.588;2023-05-31T04:05:22;92456.34;;;14.49;40.33
67377;BME280;54261;46.086;6.588;2023-05-31T04:10:24;92452.69;;;14.86;39.53
67377;BME280;54261;46.086;6.588;2023-05-31T04:15:26;92457.97;;;14.66;39.77
67377;BME280;54261;46.086;6.588;2023-05-31T04:20:32;92466.84;;;14.95;39.42
67377;BME280;54261;46.086;6.588;2023-05-31T04:25:34;92452.19;;;14.96;39.39
67377;BME280;54261;46.086;6.588;2023-05-31T04:30:37;92470.28;;;15.08;39.37
67377;BME280;54261;46.086;6.588;2023-05-31T04:35:39;92470.41;;;14.83;39.84
67377;BME280;54261;46.086;6.588;2023-05-31T04:40:42;92470.72;;;14.82;39.89
67377;BME280;54261;46.086;6.588;2023-05-31T04:45:44;92466.13;;;14.98;39.46
67377;BME280;54261;46.086;6.588;2023-05-31T04:50:46;92491.25;;;14.71;40.44
67377;BME280;54261;46.086;6.588;2023-05-31T04:55:50;92486.50;;;14.80;40.18
67377;BME280;54261;46.086;6.588;2023-05-31T05:00:53;92503.25;;;15.14;39.86
67377;BME280;54261;46.086;6.588;2023-05-31T05:06:02;92497.09;;;14.73;40.50
67377;BME280;54261;46.086;6.588;2023-05-31T05:11:13;92506.38;;;14.47;41.19
67377;BME280;54261;46.086;6.588;2023-05-31T05:16:15;92490.63;;;14.61;41.71
67377;BME280;54261;46.086;6.588;2023-05-31T05:21:17;92507.91;;;15.01;41.78
67377;BME280;54261;46.086;6.588;2023-05-31T05:26:19;92455.78;;;15.17;40.76
67377;BME280;54261;46.086;6.588;2023-05-31T05:31:21;92508.34;;;15.48;40.86
67377;BME280;54261;46.086;6.588;2023-05-31T05:36:24;92514.72;;;16.20;40.59
67377;BME280;54261;46.086;6.588;2023-05-31T05:41:30;92512.88;;;16.60;40.32
67377;BME280;54261;46.086;6.588;2023-05-31T05:46:32;92505.28;;;17.05;39.84
67377;BME280;54261;46.086;6.588;2023-05-31T05:51:36;92513.97;;;16.94;39.61
67377;BME280;54261;46.086;6.588;2023-05-31T05:56:42;92508.38;;;17.27;39.09
67377;BME280;54261;46.086;6.588;2023-05-31T06:01:46;92510.91;;;17.39;38.82
67377;BME280;54261;46.086;6.588;2023-05-31T06:06:51;92510.34;;;17.96;38.76
67377;BME280;54261;46.086;6.588;2023-05-31T06:11:52;92518.59;;;18.03;38.18
67377;BME280;54261;46.086;6.588;2023-05-31T06:16:56;92507.22;;;17.71;38.22
67377;BME280;54261;46.086;6.588;2023-05-31T06:21:58;92509.22;;;18.24;37.94
67377;BME280;54261;46.086;6.588;2023-05-31T06:27:01;92500.09;;;17.86;37.43
67377;BME280;54261;46.086;6.588;2023-05-31T06:32:08;92512.22;;;17.26;38.81
67377;BME280;54261;46.086;6.588;2023-05-31T06:37:15;92503.63;;;17.43;38.53
67377;BME280;54261;46.086;6.588;2023-05-31T06:42:17;92507.88;;;17.21;38.42
67377;BME280;54261;46.086;6.588;2023-05-31T06:47:28;92506.50;;;17.50;37.77
67377;BME280;54261;46.086;6.588;2023-05-31T06:52:59;92505.50;;;16.60;39.52
67377;BME280;54261;46.086;6.588;2023-05-31T06:58:01;92507.91;;;17.01;39.42
67377;BME280;54261;46.086;6.588;2023-05-31T07:03:06;92500.50;;;16.78;38.59
67377;BME280;54261;46.086;6.588;2023-05-31T07:08:10;92505.63;;;14.21;43.44
67377;BME280;54261;46.086;6.588;2023-05-31T07:13:31;92500.47;;;13.08;46.91
67377;BME280;54261;46.086;6.588;2023-05-31T07:18:33;92510.88;;;15.12;42.87
67377;BME280;54261;46.086;6.588;2023-05-31T07:23:35;92511.44;;;12.48;48.68
67377;BME280;54261;46.086;6.588;2023-05-31T07:28:37;92507.63;;;12.06;49.57
67377;BME280;54261;46.086;6.588;2023-05-31T07:33:39;92516.72;;;10.44;53.36
67377;BME280;54261;46.086;6.588;2023-05-31T07:38:41;92513.56;;;10.60;53.07
67377;BME280;54261;46.086;6.588;2023-05-31T07:43:43;92497.31;;;10.12;54.73
67377;BME280;54261;46.086;6.588;2023-05-31T07:48:47;92510.81;;;11.13;51.88
67377;BME280;54261;46.086;6.588;2023-05-31T07:53:49;92510.13;;;13.09;49.00
67377;BME280;54261;46.086;6.588;2023-05-31T07:58:51;92506.63;;;12.96;47.97
67377;BME280;54261;46.086;6.588;2023-05-31T08:03:54;92510.91;;;14.18;46.34
67377;BME280;54261;46.086;6.588;2023-05-31T08:08:56;92503.72;;;14.34;44.51
67377;BME280;54261;46.086;6.588;2023-05-31T08:13:58;92510.66;;;12.90;47.41
67377;BME280;54261;46.086;6.588;2023-05-31T08:19:00;92506.16;;;14.52;45.51
67377;BME280;54261;46.086;6.588;2023-05-31T08:24:03;92496.47;;;12.59;47.47
67377;BME280;54261;46.086;6.588;2023-05-31T08:29:07;92491.00;;;11.74;51.17
67377;BME280;54261;46.086;6.588;2023-05-31T08:34:09;92493.97;;;10.77;51.82
67377;BME280;54261;46.086;6.588;2023-05-31T08:39:11;92486.53;;;11.00;51.72
67377;BME280;54261;46.086;6.588;2023-05-31T08:44:14;92486.13;;;11.28;51.61
67377;BME280;54261;46.086;6.588;2023-05-31T08:49:16;92489.63;;;13.17;48.06
67377;BME280;54261;46.086;6.588;2023-05-31T08:54:18;92491.25;;;15.28;42.98
67377;BME280;54261;46.086;6.588;2023-05-31T08:59:22;92484.81;;;16.32;40.61
67377;BME280;54261;46.086;6.588;2023-05-31T09:04:25;92488.22;;;15.01;41.52
67377;BME280;54261;46.086;6.588;2023-05-31T09:09:27;92487.66;;;13.63;45.25
67377;BME280;54261;46.086;6.588;2023-05-31T09:14:29;92479.34;;;13.56;46.51
67377;BME280;54261;46.086;6.588;2023-05-31T09:19:32;92465.78;;;11.87;50.87
67377;BME280;54261;46.086;6.588;2023-05-31T09:24:34;92482.41;;;14.45;44.55
67377;BME280;54261;46.086;6.588;2023-05-31T09:29:36;92479.84;;;15.50;42.75
67377;BME280;54261;46.086;6.588;2023-05-31T09:34:38;92479.34;;;12.64;48.27
67377;BME280;54261;46.086;6.588;2023-05-31T09:39:53;92477.63;;;12.59;47.91
67377;BME280;54261;46.086;6.588;2023-05-31T09:44:58;92473.50;;;14.16;45.03
67377;BME280;54261;46.086;6.588;2023-05-31T09:50:01;92469.38;;;12.77;48.79
67377;BME280;54261;46.086;6.588;2023-05-31T09:55:07;92479.03;;;13.95;47.95
67377;BME280;54261;46.086;6.588;2023-05-31T10:00:11;92474.41;;;15.50;44.24
67377;BME280;54261;46.086;6.588;2023-05-31T10:05:17;92478.44;;;14.14;45.46
67377;BME280;54261;46.086;6.588;2023-05-31T10:10:19;92463.97;;;15.33;44.38
67377;BME280;54261;46.086;6.588;2023-05-31T10:15:25;92475.69;;;15.24;42.71
67377;BME280;54261;46.086;6.588;2023-05-31T10:20:38;92471.25;;;14.59;44.81
67377;BME280;54261;46.086;6.588;2023-05-31T10:30:54;92465.41;;;15.14;43.64
67377;BME280;54261;46.086;6.588;2023-05-31T10:36:00;92450.84;;;16.35;42.11
67377;BME280;54261;46.086;6.588;2023-05-31T10:41:08;92466.16;;;16.47;40.88
67377;BME280;54261;46.086;6.588;2023-05-31T10:46:18;92456.97;;;16.32;41.85
67377;BME280;54261;46.086;6.588;2023-05-31T10:51:41;92445.09;;;15.52;44.75
67377;BME280;54261;46.086;6.588;2023-05-31T10:56:52;92448.25;;;16.22;42.48
67377;BME280;54261;46.086;6.588;2023-05-31T11:01:54;92451.91;;;14.57;45.16
67377;BME280;54261;46.086;6.588;2023-05-31T11:07:15;92451.44;;;15.92;42.55
67377;BME280;54261;46.086;6.588;2023-05-31T11:12:39;92458.97;;;18.38;37.92
67377;BME280;54261;46.086;6.588;2023-05-31T11:17:53;92459.72;;;17.57;40.36
67377;BME280;54261;46.086;6.588;2023-05-31T11:28:21;92469.84;;;18.68;36.79
67377;BME280;54261;46.086;6.588;2023-05-31T11:33:23;92468.09;;;19.17;36.65
67377;BME280;54261;46.086;6.588;2023-05-31T11:38:25;92471.78;;;18.10;38.44
67377;BME280;54261;46.086;6.588;2023-05-31T11:43:27;92466.72;;;17.58;38.65
67377;BME280;54261;46.086;6.588;2023-05-31T11:48:35;92485.69;;;17.82;38.96
67377;BME280;54261;46.086;6.588;2023-05-31T11:53:39;92481.78;;;18.06;39.89
67377;BME280;54261;46.086;6.588;2023-05-31T11:58:46;92456.84;;;17.27;39.36
67377;BME280;54261;46.086;6.588;2023-05-31T12:03:47;92480.25;;;18.62;39.09
67377;BME280;54261;46.086;6.588;2023-05-31T12:08:51;92493.66;;;17.71;40.91
67377;BME280;54261;46.086;6.588;2023-05-31T12:13:54;92495.34;;;18.87;39.27
67377;BME280;54261;46.086;6.588;2023-05-31T12:18:56;92523.13;;;19.07;38.35
67377;BME280;54261;46.086;6.588;2023-05-31T12:24:11;92524.56;;;19.66;37.27
67377;BME280;54261;46.086;6.588;2023-05-31T12:29:13;92502.06;;;17.42;40.20
67377;BME280;54261;46.086;6.588;2023-05-31T12:34:20;92519.25;;;16.32;44.95
67377;BME280;54261;46.086;6.588;2023-05-31T12:39:22;92534.84;;;17.76;42.45
67377;BME280;54261;46.086;6.588;2023-05-31T12:44:28;92531.75;;;17.55;41.89
67377;BME280;54261;46.086;6.588;2023-05-31T12:49:34;92546.03;;;17.98;40.58
67377;BME280;54261;46.086;6.588;2023-05-31T12:54:38;92568.56;;;17.99;42.68
67377;BME280;54261;46.086;6.588;2023-05-31T12:59:40;92589.59;;;17.82;42.97
67377;BME280;54261;46.086;6.588;2023-05-31T13:04:42;92587.16;;;16.59;41.90
67377;BME280;54261;46.086;6.588;2023-05-31T13:09:44;92593.84;;;15.24;44.29
67377;BME280;54261;46.086;6.588;2023-05-31T13:14:46;92588.13;;;15.86;44.51
67377;BME280;54261;46.086;6.588;2023-05-31T13:19:47;92602.44;;;15.87;44.56
67377;BME280;54261;46.086;6.588;2023-05-31T13:25:11;92602.03;;;16.17;44.38
67377;BME280;54261;46.086;6.588;2023-05-31T13:30:13;92610.81;;;14.96;46.31
67377;BME280;54261;46.086;6.588;2023-05-31T13:35:21;92606.69;;;15.56;46.15
67377;BME280;54261;46.086;6.588;2023-05-31T13:40:22;92610.44;;;16.12;46.50
67377;BME280;54261;46.086;6.588;2023-05-31T13:45:24;92600.69;;;16.59;45.65
67377;BME280;54261;46.086;6.588;2023-05-31T13:50:26;92578.44;;;13.59;52.96
67377;BME280;54261;46.086;6.588;2023-05-31T13:55:29;92580.81;;;15.87;48.59
67377;BME280;54261;46.086;6.588;2023-05-31T14:00:32;92580.81;;;16.35;46.76
67377;BME280;54261;46.086;6.588;2023-05-31T14:05:40;92578.31;;;17.37;45.35
67377;BME280;54261;46.086;6.588;2023-05-31T14:10:42;92559.38;;;16.46;45.93
67377;BME280;54261;46.086;6.588;2023-05-31T14:15:44;92554.53;;;17.11;46.57
67377;BME280;54261;46.086;6.588;2023-05-31T14:20:46;92548.25;;;17.89;46.60
67377;BME280;54261;46.086;6.588;2023-05-31T14:25:49;92531.88;;;18.09;47.06
67377;BME280;54261;46.086;6.588;2023-05-31T14:30:50;92533.22;;;18.76;46.04
67377;BME280;54261;46.086;6.588;2023-05-31T14:35:53;92511.66;;;19.59;43.68
67377;BME280;54261;46.086;6.588;2023-05-31T14:40:55;92505.75;;;19.95;45.72
67377;BME280;54261;46.086;6.588;2023-05-31T14:45:57;92491.81;;;21.63;44.40
67377;BME280;54261;46.086;6.588;2023-05-31T14:50:59;92492.50;;;22.83;42.76
67377;BME280;54261;46.086;6.588;2023-05-31T14:56:02;92498.03;;;21.52;41.94
67377;BME280;54261;46.086;6.588;2023-05-31T15:01:07;92488.94;;;21.12;42.61
67377;BME280;54261;46.086;6.588;2023-05-31T15:06:09;92484.97;;;25.72;35.55
67377;BME280;54261;46.086;6.588;2023-05-31T15:11:11;92474.53;;;22.89;36.18
67377;BME280;54261;46.086;6.588;2023-05-31T15:16:13;92475.66;;;25.66;34.04
67377;BME280;54261;46.086;6.588;2023-05-31T15:21:15;92466.00;;;24.91;33.93
67377;BME280;54261;46.086;6.588;2023-05-31T15:26:18;92464.19;;;24.77;32.47
67377;BME280;54261;46.086;6.588;2023-05-31T15:31:20;92478.81;;;27.81;29.72
67377;BME280;54261;46.086;6.588;2023-05-31T15:36:23;92421.50;;;28.84;26.79
67377;BME280;54261;46.086;6.588;2023-05-31T15:41:25;92475.38;;;30.61;26.26
67377;BME280;54261;46.086;6.588;2023-05-31T15:46:27;92472.69;;;27.56;26.47
67377;BME280;54261;46.086;6.588;2023-05-31T15:51:29;92466.53;;;26.24;29.53
67377;BME280;54261;46.086;6.588;2023-05-31T15:56:31;92463.72;;;22.27;34.74
67377;BME280;54261;46.086;6.588;2023-05-31T16:01:33;92468.75;;;25.81;30.46
67377;BME280;54261;46.086;6.588;2023-05-31T16:06:36;92458.94;;;25.25;29.08
67377;BME280;54261;46.086;6.588;2023-05-31T16:11:38;92465.88;;;27.04;27.81
67377;BME280;54261;46.086;6.588;2023-05-31T16:16:40;92464.38;;;23.64;30.84
67377;BME280;54261;46.086;6.588;2023-05-31T16:21:42;92469.44;;;22.91;32.90
67377;BME280;54261;46.086;6.588;2023-05-31T16:26:44;92473.91;;;22.16;32.48
67377;BME280;54261;46.086;6.588;2023-05-31T16:31:46;92483.78;;;23.88;29.91
67377;BME280;54261;46.086;6.588;2023-05-31T16:36:48;92480.25;;;25.45;29.64
67377;BME280;54261;46.086;6.588;2023-05-31T16:41:50;92477.38;;;22.38;34.80
67377;BME280;54261;46.086;6.588;2023-05-31T16:46:52;92476.31;;;20.11;36.41
67377;BME280;54261;46.086;6.588;2023-05-31T16:51:54;92472.06;;;20.84;36.63
67377;BME280;54261;46.086;6.588;2023-05-31T16:56:56;92483.34;;;23.30;34.20
67377;BME280;54261;46.086;6.588;2023-05-31T17:01:59;92484.88;;;20.73;35.65
67377;BME280;54261;46.086;6.588;2023-05-31T17:07:01;92483.88;;;21.07;36.25
67377;BME280;54261;46.086;6.588;2023-05-31T17:12:03;92482.19;;;20.13;39.27
67377;BME280;54261;46.086;6.588;2023-05-31T17:17:05;92487.94;;;22.04;34.58
67377;BME280;54261;46.086;6.588;2023-05-31T17:22:07;92490.16;;;21.29;34.91
67377;BME280;54261;46.086;6.588;2023-05-31T17:27:09;92480.22;;;18.59;37.72
67377;BME280;54261;46.086;6.588;2023-05-31T17:32:11;92479.59;;;18.15;38.58
67377;BME280;54261;46.086;6.588;2023-05-31T17:37:13;92499.59;;;22.62;33.58
67377;BME280;54261;46.086;6.588;2023-05-31T17:42:15;92478.88;;;22.72;31.47
67377;BME280;54261;46.086;6.588;2023-05-31T17:47:18;92506.56;;;23.71;30.85
67377;BME280;54261;46.086;6.588;2023-05-31T17:52:20;92505.66;;;24.45;29.20
67377;BME280;54261;46.086;6.588;2023-05-31T17:57:22;92511.91;;;24.00;29.49
67377;BME280;54261;46.086;6.588;2023-05-31T18:02:24;92508.56;;;22.70;32.10
67377;BME280;54261;46.086;6.588;2023-05-31T18:07:26;92517.88;;;23.84;30.08
67377;BME280;54261;46.086;6.588;2023-05-31T18:12:31;92526.72;;;24.06;30.50
67377;BME280;54261;46.086;6.588;2023-05-31T18:17:33;92526.34;;;23.29;30.83
67377;BME280;54261;46.086;6.588;2023-05-31T18:22:35;92526.50;;;23.75;31.27
67377;BME280;54261;46.086;6.588;2023-05-31T18:27:37;92531.69;;;24.22;31.24
67377;BME280;54261;46.086;6.588;2023-05-31T18:32:39;92537.94;;;23.62;31.11
67377;BME280;54261;46.086;6.588;2023-05-31T18:37:42;92532.81;;;22.28;34.63
67377;BME280;54261;46.086;6.588;2023-05-31T18:42:43;92533.97;;;21.76;34.70
67377;BME280;54261;46.086;6.588;2023-05-31T18:47:46;92531.47;;;21.27;34.17
67377;BME280;54261;46.086;6.588;2023-05-31T18:52:48;92538.19;;;21.55;33.33
67377;BME280;54261;46.086;6.588;2023-05-31T18:57:50;92537.78;;;21.42;32.90
67377;BME280;54261;46.086;6.588;2023-05-31T19:02:52;92483.44;;;20.23;34.12
67377;BME280;54261;46.086;6.588;2023-05-31T19:07:54;92546.13;;;19.85;36.59
67377;BME280;54261;46.086;6.588;2023-05-31T19:12:56;92549.66;;;20.35;35.55
67377;BME280;54261;46.086;6.588;2023-05-31T19:17:58;92552.06;;;19.57;37.11
67377;BME280;54261;46.086;6.588;2023-05-31T19:23:18;92558.31;;;20.02;37.11
67377;BME280;54261;46.086;6.588;2023-05-31T19:28:20;92561.00;;;19.95;36.71
67377;BME280;54261;46.086;6.588;2023-05-31T19:33:22;92569.91;;;20.34;35.56
67377;BME280;54261;46.086;6.588;2023-05-31T19:38:24;92561.09;;;18.69;39.26
67377;BME280;54261;46.086;6.588;2023-05-31T19:43:30;92575.75;;;19.53;37.81
67377;BME280;54261;46.086;6.588;2023-05-31T19:48:31;92575.28;;;19.85;36.79
67377;BME280;54261;46.086;6.588;2023-05-31T19:53:35;92579.97;;;20.29;36.04
67377;BME280;54261;46.086;6.588;2023-05-31T19:58:36;92586.19;;;20.26;35.73
67377;BME280;54261;46.086;6.588;2023-05-31T20:03:38;92588.22;;;19.95;37.17
67377;BME280;54261;46.086;6.588;2023-05-31T20:08:40;92589.16;;;19.72;37.53
67377;BME280;54261;46.086;6.588;2023-05-31T20:13:42;92593.41;;;19.70;36.96
67377;BME280;54261;46.086;6.588;2023-05-31T20:18:44;92601.75;;;19.84;37.47
67377;BME280;54261;46.086;6.588;2023-05-31T20:23:46;92609.78;;;19.39;38.99
67377;BME280;54261;46.086;6.588;2023-05-31T20:28:48;92624.13;;;19.36;38.67
67377;BME280;54261;46.086;6.588;2023-05-31T20:33:50;92625.50;;;19.87;37.99
67377;BME280;54261;46.086;6.588;2023-05-31T20:38:53;92608.81;;;19.24;37.99
67377;BME280;54261;46.086;6.588;2023-05-31T20:43:54;92634.31;;;19.12;38.78
67377;BME280;54261;46.086;6.588;2023-05-31T20:48:56;92624.59;;;19.11;38.40
67377;BME280;54261;46.086;6.588;2023-05-31T20:53:58;92624.47;;;19.04;39.06
67377;BME280;54261;46.086;6.588;2023-05-31T20:59:00;92626.09;;;18.55;39.76
67377;BME280;54261;46.086;6.588;2023-05-31T21:04:02;92624.22;;;18.12;40.94
67377;BME280;54261;46.086;6.588;2023-05-31T21:09:04;92627.94;;;18.74;40.16
67377;BME280;54261;46.086;6.588;2023-05-31T21:14:06;92624.84;;;18.48;40.07
67377;BME280;54261;46.086;6.588;2023-05-31T21:19:08;92625.66;;;18.06;40.60
67377;BME280;54261;46.086;6.588;2023-05-31T21:24:10;92619.16;;;17.87;40.81
67377;BME280;54261;46.086;6.588;2023-05-31T21:29:12;92614.31;;;18.20;40.82
67377;BME280;54261;46.086;6.588;2023-05-31T21:34:14;92614.13;;;17.66;40.88
67377;BME280;54261;46.086;6.588;2023-05-31T21:39:16;92614.47;;;18.08;39.80
67377;BME280;54261;46.086;6.588;2023-05-31T21:44:18;92592.84;;;17.29;40.12
67377;BME280;54261;46.086;6.588;2023-05-31T21:49:20;92620.22;;;17.83;39.58
67377;BME280;54261;46.086;6.588;2023-05-31T21:54:22;92615.56;;;18.26;38.72
67377;BME280;54261;46.086;6.588;2023-05-31T21:59:23;92614.53;;;18.11;38.28
67377;BME280;54261;46.086;6.588;2023-05-31T22:04:25;92615.06;;;17.97;38.49
67377;BME280;54261;46.086;6.588;2023-05-31T22:09:27;92616.69;;;18.02;38.13
67377;BME280;54261;46.086;6.588;2023-05-31T22:14:29;92612.97;;;17.67;38.47
67377;BME280;54261;46.086;6.588;2023-05-31T22:19:31;92598.28;;;17.29;38.28
67377;BME280;54261;46.086;6.588;2023-05-31T22:24:33;92607.63;;;16.76;39.61
67377;BME280;54261;46.086;6.588;2023-05-31T22:29:35;92611.41;;;16.71;39.85
67377;BME280;54261;46.086;6.588;2023-05-31T22:34:37;92610.28;;;16.56;39.77
67377;BME280;54261;46.086;6.588;2023-05-31T22:39:39;92627.34;;;16.41;40.68
67377;BME280;54261;46.086;6.588;2023-05-31T22:44:40;92627.56;;;16.84;40.19
67377;BME280;54261;46.086;6.588;2023-05-31T22:49:42;92633.19;;;16.43;41.00
67377;BME280;54261;46.086;6.588;2023-05-31T22:54:44;92635.69;;;15.71;42.27
67377;BME280;54261;46.086;6.588;2023-05-31T22:59:46;92632.38;;;15.78;42.01
67377;BME280;54261;46.086;6.588;2023-05-31T23:04:48;92639.19;;;15.43;42.32
67377;BME280;54261;46.086;6.588;2023-05-31T23:09:50;92642.94;;;15.26;42.25
67377;BME280;54261;46.086;6.588;2023-05-31T23:14:51;92638.94;;;15.48;42.86
67377;BME280;54261;46.086;6.588;2023-05-31T23:19:53;92639.09;;;15.39;42.66
67377;BME280;54261;46.086;6.588;2023-05-31T23:24:58;92633.84;;;15.31;42.44
67377;BME280;54261;46.086;6.588;2023-05-31T23:30:01;92618.91;;;15.81;41.76
67377;BME280;54261;46.086;6.588;2023-05-31T23:35:05;92642.78;;;15.47;41.93
67377;BME280;54261;46.086;6.588;2023-05-31T23:40:08;92635.53;;;15.51;42.30
67377;BME280;54261;46.086;6.588;2023-05-31T23:45:10;92640.13;;;15.79;41.32
67377;BME280;54261;46.086;6.588;2023-05-31T23:50:13;92643.34;;;15.00;42.62
67377;BME280;54261;46.086;6.588;2023-05-31T23:55:14;92650.84;;;15.60;42.85
